sensor_id;sensor_type;location;lat;lon;timestamp;temperature;humidity
52575;DHT22;38468;48.114;-1.684;2023-06-24T00:01:54;20.20;61.70
52575;DHT22;38468;48.114;-1.684;2023-06-24T00:03:56;20.10;62.20
52575;DHT22;38468;48.114;-1.684;2023-06-24T00:05:57;20.10;62.00
52575;DHT22;38468;48.114;-1.684;2023-06-24T00:08:01;20.10;62.10
52575;DHT22;38468;48.114;-1.684;2023-06-24T00:10:02;20.10;62.10
52575;DHT22;38468;48.114;-1.684;2023-06-24T00:12:04;20.20;62.00
52575;DHT22;38468;48.114;-1.684;2023-06-24T00:14:05;20.10;62.20
52575;DHT22;38468;48.114;-1.684;2023-06-24T00:16:07;20.10;62.10
52575;DHT22;38468;48.114;-1.684;2023-06-24T00:18:12;20.10;62.40
52575;DHT22;38468;48.114;-1.684;2023-06-24T00:20:13;20.10;62.30
52575;DHT22;38468;48.114;-1.684;2023-06-24T00:22:15;20.10;62.90
52575;DHT22;38468;48.114;-1.684;2023-06-24T00:24:16;20.10;62.80
52575;DHT22;38468;48.114;-1.684;2023-06-24T00:26:18;20.00;62.90
52575;DHT22;38468;48.114;-1.684;2023-06-24T00:28:18;19.90;63.70
52575;DHT22;38468;48.114;-1.684;2023-06-24T00:30:19;19.90;63.70
52575;DHT22;38468;48.114;-1.684;2023-06-24T00:32:20;19.90;63.80
52575;DHT22;38468;48.114;-1.684;2023-06-24T00:34:20;19.90;63.70
52575;DHT22;38468;48.114;-1.684;2023-06-24T00:36:21;19.90;63.60
52575;DHT22;38468;48.114;-1.684;2023-06-24T00:38:22;20.00;63.70
52575;DHT22;38468;48.114;-1.684;2023-06-24T00:40:23;19.90;63.70
52575;DHT22;38468;48.114;-1.684;2023-06-24T00:42:23;19.80;64.20
52575;DHT22;38468;48.114;-1.684;2023-06-24T00:44:24;19.80;63.90
52575;DHT22;38468;48.114;-1.684;2023-06-24T00:46:25;19.80;64.00
52575;DHT22;38468;48.114;-1.684;2023-06-24T00:48:26;19.80;63.90
52575;DHT22;38468;48.114;-1.684;2023-06-24T00:50:27;19.80;64.00
52575;DHT22;38468;48.114;-1.684;2023-06-24T00:52:28;19.70;64.40
52575;DHT22;38468;48.114;-1.684;2023-06-24T00:54:28;19.70;64.60
52575;DHT22;38468;48.114;-1.684;2023-06-24T00:56:35;19.70;64.60
52575;DHT22;38468;48.114;-1.684;2023-06-24T00:58:38;19.70;64.70
52575;DHT22;38468;48.114;-1.684;2023-06-24T01:00:39;19.70;64.70
52575;DHT22;38468;48.114;-1.684;2023-06-24T01:02:41;19.70;64.60
52575;DHT22;38468;48.114;-1.684;2023-06-24T01:04:42;19.60;65.20
52575;DHT22;38468;48.114;-1.684;2023-06-24T01:06:44;19.60;65.50
52575;DHT22;38468;48.114;-1.684;2023-06-24T01:08:44;19.50;65.00
52575;DHT22;38468;48.114;-1.684;2023-06-24T01:10:51;19.50;65.40
52575;DHT22;38468;48.114;-1.684;2023-06-24T01:12:51;19.50;65.50
52575;DHT22;38468;48.114;-1.684;2023-06-24T01:14:52;19.50;65.60
52575;DHT22;38468;48.114;-1.684;2023-06-24T01:17:00;19.50;65.70
52575;DHT22;38468;48.114;-1.684;2023-06-24T01:21:59;19.50;65.80
52575;DHT22;38468;48.114;-1.684;2023-06-24T01:29:28;19.30;66.80
52575;DHT22;38468;48.114;-1.684;2023-06-24T01:33:46;19.40;66.60
52575;DHT22;38468;48.114;-1.684;2023-06-24T01:35:49;19.30;67.10
52575;DHT22;38468;48.114;-1.684;2023-06-24T01:37:51;19.30;67.20
52575;DHT22;38468;48.114;-1.684;2023-06-24T01:42:07;19.20;67.50
52575;DHT22;38468;48.114;-1.684;2023-06-24T01:44:14;19.10;67.80
52575;DHT22;38468;48.114;-1.684;2023-06-24T01:46:16;19.00;67.70
52575;DHT22;38468;48.114;-1.684;2023-06-24T01:48:25;19.20;67.70
52575;DHT22;38468;48.114;-1.684;2023-06-24T01:50:27;19.20;67.50
52575;DHT22;38468;48.114;-1.684;2023-06-24T01:52:30;19.20;67.70
52575;DHT22;38468;48.114;-1.684;2023-06-24T01:54:33;19.10;67.80
52575;DHT22;38468;48.114;-1.684;2023-06-24T01:56:36;19.10;67.70
52575;DHT22;38468;48.114;-1.684;2023-06-24T01:58:39;19.10;67.90
52575;DHT22;38468;48.114;-1.684;2023-06-24T02:00:40;19.10;67.90
52575;DHT22;38468;48.114;-1.684;2023-06-24T02:02:42;19.10;68.10
52575;DHT22;38468;48.114;-1.684;2023-06-24T02:04:44;19.10;68.20
52575;DHT22;38468;48.114;-1.684;2023-06-24T02:06:46;19.10;68.00
52575;DHT22;38468;48.114;-1.684;2023-06-24T02:08:48;19.10;68.20
52575;DHT22;38468;48.114;-1.684;2023-06-24T02:10:51;19.00;68.50
52575;DHT22;38468;48.114;-1.684;2023-06-24T02:12:54;19.00;68.90
52575;DHT22;38468;48.114;-1.684;2023-06-24T02:14:56;19.00;68.30
52575;DHT22;38468;48.114;-1.684;2023-06-24T02:16:59;19.10;68.20
52575;DHT22;38468;48.114;-1.684;2023-06-24T02:19:01;19.20;68.40
52575;DHT22;38468;48.114;-1.684;2023-06-24T02:21:03;19.10;68.30
52575;DHT22;38468;48.114;-1.684;2023-06-24T02:23:04;19.00;68.90
52575;DHT22;38468;48.114;-1.684;2023-06-24T02:25:07;19.00;69.10
52575;DHT22;38468;48.114;-1.684;2023-06-24T02:27:09;19.00;69.40
52575;DHT22;38468;48.114;-1.684;2023-06-24T02:29:11;19.00;69.40
52575;DHT22;38468;48.114;-1.684;2023-06-24T02:31:12;19.00;69.50
52575;DHT22;38468;48.114;-1.684;2023-06-24T02:33:14;19.00;69.50
52575;DHT22;38468;48.114;-1.684;2023-06-24T02:35:15;19.00;69.30
52575;DHT22;38468;48.114;-1.684;2023-06-24T02:37:15;19.00;69.50
52575;DHT22;38468;48.114;-1.684;2023-06-24T02:39:16;18.90;70.10
52575;DHT22;38468;48.114;-1.684;2023-06-24T02:41:17;18.90;69.90
52575;DHT22;38468;48.114;-1.684;2023-06-24T02:43:18;18.90;70.20
52575;DHT22;38468;48.114;-1.684;2023-06-24T02:45:19;18.80;70.40
52575;DHT22;38468;48.114;-1.684;2023-06-24T02:47:20;18.80;70.40
52575;DHT22;38468;48.114;-1.684;2023-06-24T02:49:21;18.80;70.50
52575;DHT22;38468;48.114;-1.684;2023-06-24T02:51:22;18.80;70.40
52575;DHT22;38468;48.114;-1.684;2023-06-24T02:53:23;18.70;70.70
52575;DHT22;38468;48.114;-1.684;2023-06-24T02:55:24;18.70;70.60
52575;DHT22;38468;48.114;-1.684;2023-06-24T02:57:26;18.70;70.80
52575;DHT22;38468;48.114;-1.684;2023-06-24T02:59:27;18.70;70.80
52575;DHT22;38468;48.114;-1.684;2023-06-24T03:01:29;18.80;70.60
52575;DHT22;38468;48.114;-1.684;2023-06-24T03:03:29;18.80;70.70
52575;DHT22;38468;48.114;-1.684;2023-06-24T03:05:31;18.80;70.70
52575;DHT22;38468;48.114;-1.684;2023-06-24T03:07:33;18.60;70.70
52575;DHT22;38468;48.114;-1.684;2023-06-24T03:09:37;18.50;71.30
52575;DHT22;38468;48.114;-1.684;2023-06-24T03:11:42;18.60;71.40
52575;DHT22;38468;48.114;-1.684;2023-06-24T03:13:43;18.50;71.60
52575;DHT22;38468;48.114;-1.684;2023-06-24T03:15:44;18.50;71.40
52575;DHT22;38468;48.114;-1.684;2023-06-24T03:17:45;18.50;71.40
52575;DHT22;38468;48.114;-1.684;2023-06-24T03:19:46;18.60;71.50
52575;DHT22;38468;48.114;-1.684;2023-06-24T03:21:46;18.50;71.70
52575;DHT22;38468;48.114;-1.684;2023-06-24T03:23:47;18.50;71.60
52575;DHT22;38468;48.114;-1.684;2023-06-24T03:25:48;18.50;71.90
52575;DHT22;38468;48.114;-1.684;2023-06-24T03:27:48;18.40;72.10
52575;DHT22;38468;48.114;-1.684;2023-06-24T03:29:49;18.40;72.10
52575;DHT22;38468;48.114;-1.684;2023-06-24T03:31:49;18.50;71.90
52575;DHT22;38468;48.114;-1.684;2023-06-24T03:33:50;18.50;71.70
52575;DHT22;38468;48.114;-1.684;2023-06-24T03:35:51;18.40;72.30
52575;DHT22;38468;48.114;-1.684;2023-06-24T03:37:52;18.40;72.30
52575;DHT22;38468;48.114;-1.684;2023-06-24T03:39:52;18.40;72.20
52575;DHT22;38468;48.114;-1.684;2023-06-24T03:41:53;18.40;72.30
52575;DHT22;38468;48.114;-1.684;2023-06-24T03:43:53;18.30;72.80
52575;DHT22;38468;48.114;-1.684;2023-06-24T03:45:54;18.40;72.50
52575;DHT22;38468;48.114;-1.684;2023-06-24T03:47:55;18.40;72.60
52575;DHT22;38468;48.114;-1.684;2023-06-24T03:49:56;18.30;72.80
52575;DHT22;38468;48.114;-1.684;2023-06-24T03:51:56;18.40;72.30
52575;DHT22;38468;48.114;-1.684;2023-06-24T03:53:57;18.40;72.40
52575;DHT22;38468;48.114;-1.684;2023-06-24T03:55:58;18.30;72.80
52575;DHT22;38468;48.114;-1.684;2023-06-24T03:57:58;18.30;72.90
52575;DHT22;38468;48.114;-1.684;2023-06-24T03:59:59;18.20;73.20
52575;DHT22;38468;48.114;-1.684;2023-06-24T04:02:00;18.40;73.30
52575;DHT22;38468;48.114;-1.684;2023-06-24T04:04:01;18.40;73.00
52575;DHT22;38468;48.114;-1.684;2023-06-24T04:06:01;18.50;72.70
52575;DHT22;38468;48.114;-1.684;2023-06-24T04:08:02;18.40;72.60
52575;DHT22;38468;48.114;-1.684;2023-06-24T04:10:09;18.40;72.70
52575;DHT22;38468;48.114;-1.684;2023-06-24T04:12:11;18.30;72.80
52575;DHT22;38468;48.114;-1.684;2023-06-24T04:14:11;18.40;73.00
52575;DHT22;38468;48.114;-1.684;2023-06-24T04:16:12;18.30;73.00
52575;DHT22;38468;48.114;-1.684;2023-06-24T04:18:13;18.30;73.10
52575;DHT22;38468;48.114;-1.684;2023-06-24T04:20:14;18.20;73.50
52575;DHT22;38468;48.114;-1.684;2023-06-24T04:22:15;18.30;73.40
52575;DHT22;38468;48.114;-1.684;2023-06-24T04:24:15;18.40;73.30
52575;DHT22;38468;48.114;-1.684;2023-06-24T04:26:16;18.40;73.20
52575;DHT22;38468;48.114;-1.684;2023-06-24T04:28:17;18.40;72.90
52575;DHT22;38468;48.114;-1.684;2023-06-24T04:30:17;18.20;73.30
52575;DHT22;38468;48.114;-1.684;2023-06-24T04:32:18;18.30;73.40
52575;DHT22;38468;48.114;-1.684;2023-06-24T04:34:19;18.30;73.30
52575;DHT22;38468;48.114;-1.684;2023-06-24T04:36:19;18.40;73.40
52575;DHT22;38468;48.114;-1.684;2023-06-24T04:38:20;18.40;73.30
52575;DHT22;38468;48.114;-1.684;2023-06-24T04:40:21;18.40;73.40
52575;DHT22;38468;48.114;-1.684;2023-06-24T04:42:21;18.40;73.40
52575;DHT22;38468;48.114;-1.684;2023-06-24T04:44:23;18.40;73.20
52575;DHT22;38468;48.114;-1.684;2023-06-24T04:46:23;18.30;73.50
52575;DHT22;38468;48.114;-1.684;2023-06-24T04:48:24;18.30;73.30
52575;DHT22;38468;48.114;-1.684;2023-06-24T04:50:25;18.40;73.50
52575;DHT22;38468;48.114;-1.684;2023-06-24T04:52:25;18.30;73.60
52575;DHT22;38468;48.114;-1.684;2023-06-24T04:54:26;18.20;73.60
52575;DHT22;38468;48.114;-1.684;2023-06-24T04:56:27;18.10;73.80
52575;DHT22;38468;48.114;-1.684;2023-06-24T04:58:28;18.30;74.00
52575;DHT22;38468;48.114;-1.684;2023-06-24T05:00:29;18.30;73.80
52575;DHT22;38468;48.114;-1.684;2023-06-24T05:02:30;18.40;73.70
52575;DHT22;38468;48.114;-1.684;2023-06-24T05:04:30;18.40;73.80
52575;DHT22;38468;48.114;-1.684;2023-06-24T05:06:31;18.50;73.50
52575;DHT22;38468;48.114;-1.684;2023-06-24T05:08:32;18.50;73.40
52575;DHT22;38468;48.114;-1.684;2023-06-24T05:10:32;18.70;73.00
52575;DHT22;38468;48.114;-1.684;2023-06-24T05:12:33;18.70;72.90
52575;DHT22;38468;48.114;-1.684;2023-06-24T05:14:34;18.70;72.80
52575;DHT22;38468;48.114;-1.684;2023-06-24T05:16:35;18.70;73.00
52575;DHT22;38468;48.114;-1.684;2023-06-24T05:18:36;18.80;72.90
52575;DHT22;38468;48.114;-1.684;2023-06-24T05:20:36;18.70;73.10
52575;DHT22;38468;48.114;-1.684;2023-06-24T05:22:37;18.80;73.20
52575;DHT22;38468;48.114;-1.684;2023-06-24T05:24:38;18.80;72.90
52575;DHT22;38468;48.114;-1.684;2023-06-24T05:26:38;18.80;72.80
52575;DHT22;38468;48.114;-1.684;2023-06-24T05:28:39;18.80;73.00
52575;DHT22;38468;48.114;-1.684;2023-06-24T05:30:41;18.80;73.10
52575;DHT22;38468;48.114;-1.684;2023-06-24T05:32:41;18.80;73.20
52575;DHT22;38468;48.114;-1.684;2023-06-24T05:34:42;18.90;73.00
52575;DHT22;38468;48.114;-1.684;2023-06-24T05:36:43;18.90;73.00
52575;DHT22;38468;48.114;-1.684;2023-06-24T05:38:43;18.80;73.40
52575;DHT22;38468;48.114;-1.684;2023-06-24T05:40:44;18.90;73.10
52575;DHT22;38468;48.114;-1.684;2023-06-24T05:42:45;18.90;73.00
52575;DHT22;38468;48.114;-1.684;2023-06-24T05:44:45;18.90;72.90
52575;DHT22;38468;48.114;-1.684;2023-06-24T05:46:46;19.00;72.80
52575;DHT22;38468;48.114;-1.684;2023-06-24T05:48:46;19.00;72.90
52575;DHT22;38468;48.114;-1.684;2023-06-24T05:50:47;19.00;72.80
52575;DHT22;38468;48.114;-1.684;2023-06-24T05:52:48;19.10;72.60
52575;DHT22;38468;48.114;-1.684;2023-06-24T05:54:48;19.10;72.80
52575;DHT22;38468;48.114;-1.684;2023-06-24T05:56:49;19.20;72.70
52575;DHT22;38468;48.114;-1.684;2023-06-24T05:58:49;19.20;72.60
52575;DHT22;38468;48.114;-1.684;2023-06-24T06:00:50;19.30;72.40
52575;DHT22;38468;48.114;-1.684;2023-06-24T06:02:51;19.30;72.50
52575;DHT22;38468;48.114;-1.684;2023-06-24T06:04:51;19.30;72.40
52575;DHT22;38468;48.114;-1.684;2023-06-24T06:06:52;19.40;72.40
52575;DHT22;38468;48.114;-1.684;2023-06-24T06:08:53;19.40;71.90
52575;DHT22;38468;48.114;-1.684;2023-06-24T06:10:53;19.40;71.90
52575;DHT22;38468;48.114;-1.684;2023-06-24T06:12:55;19.50;71.70
52575;DHT22;38468;48.114;-1.684;2023-06-24T06:14:55;19.50;70.80
52575;DHT22;38468;48.114;-1.684;2023-06-24T06:16:56;19.50;70.50
52575;DHT22;38468;48.114;-1.684;2023-06-24T06:18:57;19.50;70.50
52575;DHT22;38468;48.114;-1.684;2023-06-24T06:20:57;19.50;69.50
52575;DHT22;38468;48.114;-1.684;2023-06-24T06:22:58;19.60;69.60
52575;DHT22;38468;48.114;-1.684;2023-06-24T06:24:58;19.70;69.80
52575;DHT22;38468;48.114;-1.684;2023-06-24T06:26:59;19.70;69.70
52575;DHT22;38468;48.114;-1.684;2023-06-24T06:29:00;19.80;69.60
52575;DHT22;38468;48.114;-1.684;2023-06-24T06:31:00;19.80;69.60
52575;DHT22;38468;48.114;-1.684;2023-06-24T06:33:01;19.90;69.10
52575;DHT22;38468;48.114;-1.684;2023-06-24T06:35:02;19.90;69.10
52575;DHT22;38468;48.114;-1.684;2023-06-24T06:37:03;20.00;69.20
52575;DHT22;38468;48.114;-1.684;2023-06-24T06:39:03;20.00;69.10
52575;DHT22;38468;48.114;-1.684;2023-06-24T06:41:04;20.10;69.10
52575;DHT22;38468;48.114;-1.684;2023-06-24T06:43:04;20.10;68.90
52575;DHT22;38468;48.114;-1.684;2023-06-24T06:45:05;20.00;68.10
52575;DHT22;38468;48.114;-1.684;2023-06-24T06:47:06;20.10;68.10
52575;DHT22;38468;48.114;-1.684;2023-06-24T06:49:07;20.10;68.10
52575;DHT22;38468;48.114;-1.684;2023-06-24T06:51:08;20.20;68.20
52575;DHT22;38468;48.114;-1.684;2023-06-24T06:53:08;20.20;68.00
52575;DHT22;38468;48.114;-1.684;2023-06-24T06:55:09;20.30;67.50
52575;DHT22;38468;48.114;-1.684;2023-06-24T06:57:10;20.30;67.80
52575;DHT22;38468;48.114;-1.684;2023-06-24T06:59:11;20.40;67.70
52575;DHT22;38468;48.114;-1.684;2023-06-24T07:01:11;20.50;67.80
52575;DHT22;38468;48.114;-1.684;2023-06-24T07:03:12;20.50;67.50
52575;DHT22;38468;48.114;-1.684;2023-06-24T07:05:12;20.50;67.30
52575;DHT22;38468;48.114;-1.684;2023-06-24T07:07:13;20.60;67.30
52575;DHT22;38468;48.114;-1.684;2023-06-24T07:09:14;20.70;67.00
52575;DHT22;38468;48.114;-1.684;2023-06-24T07:11:15;20.70;66.90
52575;DHT22;38468;48.114;-1.684;2023-06-24T07:13:16;20.80;66.60
52575;DHT22;38468;48.114;-1.684;2023-06-24T07:15:17;20.80;66.90
52575;DHT22;38468;48.114;-1.684;2023-06-24T07:17:19;20.90;67.10
52575;DHT22;38468;48.114;-1.684;2023-06-24T07:19:20;21.00;66.80
52575;DHT22;38468;48.114;-1.684;2023-06-24T07:21:20;21.10;66.30
52575;DHT22;38468;48.114;-1.684;2023-06-24T07:23:21;21.20;65.90
52575;DHT22;38468;48.114;-1.684;2023-06-24T07:25:22;21.20;65.80
52575;DHT22;38468;48.114;-1.684;2023-06-24T07:27:27;21.30;65.30
52575;DHT22;38468;48.114;-1.684;2023-06-24T07:29:28;21.50;65.50
52575;DHT22;38468;48.114;-1.684;2023-06-24T07:31:29;21.50;65.10
52575;DHT22;38468;48.114;-1.684;2023-06-24T07:33:29;21.50;65.70
52575;DHT22;38468;48.114;-1.684;2023-06-24T07:35:32;21.70;64.80
52575;DHT22;38468;48.114;-1.684;2023-06-24T07:37:34;21.70;64.40
52575;DHT22;38468;48.114;-1.684;2023-06-24T07:39:34;21.80;64.40
52575;DHT22;38468;48.114;-1.684;2023-06-24T07:41:35;21.90;64.60
52575;DHT22;38468;48.114;-1.684;2023-06-24T07:43:36;22.00;64.10
52575;DHT22;38468;48.114;-1.684;2023-06-24T07:45:36;22.10;64.10
52575;DHT22;38468;48.114;-1.684;2023-06-24T07:47:37;22.10;64.10
52575;DHT22;38468;48.114;-1.684;2023-06-24T07:49:38;22.20;64.00
52575;DHT22;38468;48.114;-1.684;2023-06-24T07:51:38;22.40;64.00
52575;DHT22;38468;48.114;-1.684;2023-06-24T07:53:39;22.50;63.30
52575;DHT22;38468;48.114;-1.684;2023-06-24T07:55:39;22.50;63.00
52575;DHT22;38468;48.114;-1.684;2023-06-24T07:57:40;22.50;63.20
52575;DHT22;38468;48.114;-1.684;2023-06-24T07:59:45;22.60;63.20
52575;DHT22;38468;48.114;-1.684;2023-06-24T08:01:45;22.70;62.60
52575;DHT22;38468;48.114;-1.684;2023-06-24T08:03:46;22.80;62.90
52575;DHT22;38468;48.114;-1.684;2023-06-24T08:05:46;22.90;62.80
52575;DHT22;38468;48.114;-1.684;2023-06-24T08:07:47;23.00;62.10
52575;DHT22;38468;48.114;-1.684;2023-06-24T08:09:48;23.00;61.60
52575;DHT22;38468;48.114;-1.684;2023-06-24T08:11:48;23.10;62.10
52575;DHT22;38468;48.114;-1.684;2023-06-24T08:13:49;23.20;61.00
52575;DHT22;38468;48.114;-1.684;2023-06-24T08:15:49;23.20;61.10
52575;DHT22;38468;48.114;-1.684;2023-06-24T08:17:54;23.30;61.10
52575;DHT22;38468;48.114;-1.684;2023-06-24T08:19:55;23.30;60.60
52575;DHT22;38468;48.114;-1.684;2023-06-24T08:21:55;23.40;61.10
52575;DHT22;38468;48.114;-1.684;2023-06-24T08:23:56;23.50;61.10
52575;DHT22;38468;48.114;-1.684;2023-06-24T08:25:57;23.50;60.60
52575;DHT22;38468;48.114;-1.684;2023-06-24T08:27:57;23.60;60.20
52575;DHT22;38468;48.114;-1.684;2023-06-24T08:29:58;23.70;59.10
52575;DHT22;38468;48.114;-1.684;2023-06-24T08:31:58;23.70;59.40
52575;DHT22;38468;48.114;-1.684;2023-06-24T08:33:59;23.90;59.20
52575;DHT22;38468;48.114;-1.684;2023-06-24T08:36:02;23.90;59.10
52575;DHT22;38468;48.114;-1.684;2023-06-24T08:38:03;23.90;58.30
52575;DHT22;38468;48.114;-1.684;2023-06-24T08:40:04;24.00;58.50
52575;DHT22;38468;48.114;-1.684;2023-06-24T08:42:05;24.10;58.50
52575;DHT22;38468;48.114;-1.684;2023-06-24T08:44:07;24.10;56.90
52575;DHT22;38468;48.114;-1.684;2023-06-24T08:46:08;24.20;57.70
52575;DHT22;38468;48.114;-1.684;2023-06-24T08:48:09;24.20;56.30
52575;DHT22;38468;48.114;-1.684;2023-06-24T08:50:14;24.30;56.30
52575;DHT22;38468;48.114;-1.684;2023-06-24T08:52:16;24.30;56.50
52575;DHT22;38468;48.114;-1.684;2023-06-24T08:54:16;24.40;56.40
52575;DHT22;38468;48.114;-1.684;2023-06-24T08:56:19;24.50;56.40
52575;DHT22;38468;48.114;-1.684;2023-06-24T08:58:20;24.60;56.20
52575;DHT22;38468;48.114;-1.684;2023-06-24T09:00:21;24.60;55.00
52575;DHT22;38468;48.114;-1.684;2023-06-24T09:02:22;24.70;54.70
52575;DHT22;38468;48.114;-1.684;2023-06-24T09:04:23;24.70;54.80
52575;DHT22;38468;48.114;-1.684;2023-06-24T09:06:23;24.80;53.80
52575;DHT22;38468;48.114;-1.684;2023-06-24T09:08:24;24.80;54.20
52575;DHT22;38468;48.114;-1.684;2023-06-24T09:10:32;24.90;54.10
52575;DHT22;38468;48.114;-1.684;2023-06-24T09:12:34;24.90;53.50
52575;DHT22;38468;48.114;-1.684;2023-06-24T09:14:37;25.00;53.30
52575;DHT22;38468;48.114;-1.684;2023-06-24T09:16:38;25.10;53.60
52575;DHT22;38468;48.114;-1.684;2023-06-24T09:18:39;25.20;53.50
52575;DHT22;38468;48.114;-1.684;2023-06-24T09:20:41;25.20;53.70
52575;DHT22;38468;48.114;-1.684;2023-06-24T09:22:45;25.40;54.60
52575;DHT22;38468;48.114;-1.684;2023-06-24T09:24:47;25.50;52.20
52575;DHT22;38468;48.114;-1.684;2023-06-24T09:26:48;25.50;52.40
52575;DHT22;38468;48.114;-1.684;2023-06-24T09:28:49;25.50;52.60
52575;DHT22;38468;48.114;-1.684;2023-06-24T09:31:04;25.50;49.10
52575;DHT22;38468;48.114;-1.684;2023-06-24T09:33:05;25.50;48.90
52575;DHT22;38468;48.114;-1.684;2023-06-24T09:35:06;25.50;50.10
52575;DHT22;38468;48.114;-1.684;2023-06-24T09:37:07;25.70;49.60
52575;DHT22;38468;48.114;-1.684;2023-06-24T09:39:08;25.70;48.70
52575;DHT22;38468;48.114;-1.684;2023-06-24T09:41:09;25.80;48.50
52575;DHT22;38468;48.114;-1.684;2023-06-24T09:43:20;25.70;47.90
52575;DHT22;38468;48.114;-1.684;2023-06-24T09:45:26;25.80;47.50
52575;DHT22;38468;48.114;-1.684;2023-06-24T09:47:27;25.80;48.40
52575;DHT22;38468;48.114;-1.684;2023-06-24T09:49:29;26.00;46.70
52575;DHT22;38468;48.114;-1.684;2023-06-24T09:51:32;26.00;45.90
52575;DHT22;38468;48.114;-1.684;2023-06-24T09:53:35;26.10;46.60
52575;DHT22;38468;48.114;-1.684;2023-06-24T09:55:36;26.20;46.70
52575;DHT22;38468;48.114;-1.684;2023-06-24T09:57:42;26.10;45.60
52575;DHT22;38468;48.114;-1.684;2023-06-24T09:59:44;26.20;46.10
52575;DHT22;38468;48.114;-1.684;2023-06-24T10:01:47;26.30;45.80
52575;DHT22;38468;48.114;-1.684;2023-06-24T10:03:48;26.30;45.60
52575;DHT22;38468;48.114;-1.684;2023-06-24T10:05:49;26.30;45.10
52575;DHT22;38468;48.114;-1.684;2023-06-24T10:07:50;26.40;44.80
52575;DHT22;38468;48.114;-1.684;2023-06-24T10:09:51;26.40;44.90
52575;DHT22;38468;48.114;-1.684;2023-06-24T10:11:51;26.40;44.90
52575;DHT22;38468;48.114;-1.684;2023-06-24T10:13:53;26.50;45.20
52575;DHT22;38468;48.114;-1.684;2023-06-24T10:15:57;26.70;45.40
52575;DHT22;38468;48.114;-1.684;2023-06-24T10:18:02;26.80;43.90
52575;DHT22;38468;48.114;-1.684;2023-06-24T10:20:04;26.90;43.90
52575;DHT22;38468;48.114;-1.684;2023-06-24T10:22:10;26.90;44.00
52575;DHT22;38468;48.114;-1.684;2023-06-24T10:24:11;27.00;43.60
52575;DHT22;38468;48.114;-1.684;2023-06-24T10:26:28;26.90;43.60
52575;DHT22;38468;48.114;-1.684;2023-06-24T10:31:05;27.00;43.20
52575;DHT22;38468;48.114;-1.684;2023-06-24T10:33:10;26.90;43.50
52575;DHT22;38468;48.114;-1.684;2023-06-24T10:37:26;27.20;42.70
52575;DHT22;38468;48.114;-1.684;2023-06-24T10:41:46;27.00;43.90
52575;DHT22;38468;48.114;-1.684;2023-06-24T10:43:46;27.10;42.60
52575;DHT22;38468;48.114;-1.684;2023-06-24T10:45:55;27.10;43.10
52575;DHT22;38468;48.114;-1.684;2023-06-24T10:47:56;27.30;43.30
52575;DHT22;38468;48.114;-1.684;2023-06-24T10:49:57;27.50;42.30
52575;DHT22;38468;48.114;-1.684;2023-06-24T10:51:58;27.60;43.50
52575;DHT22;38468;48.114;-1.684;2023-06-24T10:53:58;27.60;41.90
52575;DHT22;38468;48.114;-1.684;2023-06-24T10:55:59;27.80;42.30
52575;DHT22;38468;48.114;-1.684;2023-06-24T10:58:10;27.80;42.30
52575;DHT22;38468;48.114;-1.684;2023-06-24T11:00:14;27.90;42.00
52575;DHT22;38468;48.114;-1.684;2023-06-24T11:02:16;28.00;41.60
52575;DHT22;38468;48.114;-1.684;2023-06-24T11:04:16;28.00;41.70
52575;DHT22;38468;48.114;-1.684;2023-06-24T11:06:17;28.10;43.00
52575;DHT22;38468;48.114;-1.684;2023-06-24T11:08:18;28.10;41.20
52575;DHT22;38468;48.114;-1.684;2023-06-24T11:10:18;28.00;41.00
52575;DHT22;38468;48.114;-1.684;2023-06-24T11:12:23;27.70;40.10
52575;DHT22;38468;48.114;-1.684;2023-06-24T11:14:24;27.80;40.90
52575;DHT22;38468;48.114;-1.684;2023-06-24T11:16:25;27.90;40.60
52575;DHT22;38468;48.114;-1.684;2023-06-24T11:18:26;28.00;40.90
52575;DHT22;38468;48.114;-1.684;2023-06-24T11:20:27;28.10;40.60
52575;DHT22;38468;48.114;-1.684;2023-06-24T11:22:27;28.00;41.40
52575;DHT22;38468;48.114;-1.684;2023-06-24T11:24:28;28.20;41.50
52575;DHT22;38468;48.114;-1.684;2023-06-24T11:26:29;28.30;41.20
52575;DHT22;38468;48.114;-1.684;2023-06-24T11:28:31;28.40;41.50
52575;DHT22;38468;48.114;-1.684;2023-06-24T11:30:35;28.50;41.80
52575;DHT22;38468;48.114;-1.684;2023-06-24T11:32:41;28.50;40.30
52575;DHT22;38468;48.114;-1.684;2023-06-24T11:34:42;28.60;41.10
52575;DHT22;38468;48.114;-1.684;2023-06-24T11:36:42;28.60;39.00
52575;DHT22;38468;48.114;-1.684;2023-06-24T11:38:45;28.60;39.40
52575;DHT22;38468;48.114;-1.684;2023-06-24T11:40:48;28.80;39.70
52575;DHT22;38468;48.114;-1.684;2023-06-24T11:42:50;28.90;39.40
52575;DHT22;38468;48.114;-1.684;2023-06-24T11:44:51;29.00;40.00
52575;DHT22;38468;48.114;-1.684;2023-06-24T11:46:52;29.00;39.20
52575;DHT22;38468;48.114;-1.684;2023-06-24T11:49:06;29.00;39.00
52575;DHT22;38468;48.114;-1.684;2023-06-24T11:51:13;29.00;39.80
52575;DHT22;38468;48.114;-1.684;2023-06-24T11:53:14;29.00;39.60
52575;DHT22;38468;48.114;-1.684;2023-06-24T11:55:19;29.10;39.80
52575;DHT22;38468;48.114;-1.684;2023-06-24T11:57:20;29.20;37.60
52575;DHT22;38468;48.114;-1.684;2023-06-24T11:59:23;29.10;37.40
52575;DHT22;38468;48.114;-1.684;2023-06-24T12:01:33;29.00;37.80
52575;DHT22;38468;48.114;-1.684;2023-06-24T12:03:37;29.00;37.00
52575;DHT22;38468;48.114;-1.684;2023-06-24T12:05:38;29.00;37.70
52575;DHT22;38468;48.114;-1.684;2023-06-24T12:07:44;29.20;37.80
52575;DHT22;38468;48.114;-1.684;2023-06-24T12:09:45;29.20;37.90
52575;DHT22;38468;48.114;-1.684;2023-06-24T12:11:46;29.20;37.30
52575;DHT22;38468;48.114;-1.684;2023-06-24T12:13:46;29.30;37.80
52575;DHT22;38468;48.114;-1.684;2023-06-24T12:15:47;29.40;38.60
52575;DHT22;38468;48.114;-1.684;2023-06-24T12:17:47;29.60;38.00
52575;DHT22;38468;48.114;-1.684;2023-06-24T12:19:48;29.50;36.30
52575;DHT22;38468;48.114;-1.684;2023-06-24T12:21:49;29.40;35.50
52575;DHT22;38468;48.114;-1.684;2023-06-24T12:23:49;29.10;36.10
52575;DHT22;38468;48.114;-1.684;2023-06-24T12:25:50;29.50;35.60
52575;DHT22;38468;48.114;-1.684;2023-06-24T12:27:51;29.20;35.50
52575;DHT22;38468;48.114;-1.684;2023-06-24T12:29:51;29.30;34.80
52575;DHT22;38468;48.114;-1.684;2023-06-24T12:31:52;29.20;35.70
52575;DHT22;38468;48.114;-1.684;2023-06-24T12:33:52;29.20;36.70
52575;DHT22;38468;48.114;-1.684;2023-06-24T12:35:53;29.10;35.20
52575;DHT22;38468;48.114;-1.684;2023-06-24T12:37:54;29.10;36.00
52575;DHT22;38468;48.114;-1.684;2023-06-24T12:39:55;29.40;34.80
52575;DHT22;38468;48.114;-1.684;2023-06-24T12:41:56;29.40;35.40
52575;DHT22;38468;48.114;-1.684;2023-06-24T12:43:57;29.50;35.00
52575;DHT22;38468;48.114;-1.684;2023-06-24T12:45:57;29.00;35.80
52575;DHT22;38468;48.114;-1.684;2023-06-24T12:47:58;29.30;36.70
52575;DHT22;38468;48.114;-1.684;2023-06-24T12:50:00;29.60;36.90
52575;DHT22;38468;48.114;-1.684;2023-06-24T12:52:01;29.80;36.00
52575;DHT22;38468;48.114;-1.684;2023-06-24T12:54:02;29.70;35.10
52575;DHT22;38468;48.114;-1.684;2023-06-24T12:56:03;29.80;36.40